createdAt,value
2019-05-05T00:02:20.233Z,61.55
2019-05-05T00:05:08.430Z,62.36
2019-05-05T00:07:36.944Z,62.86
2019-05-05T00:10:09.642Z,63.47
2019-05-05T00:12:56.518Z,63.24
2019-05-05T00:15:44.990Z,63.40
2019-05-05T00:18:15.445Z,63.67
2019-05-05T00:20:44.961Z,63.71
2019-05-05T00:23:14.682Z,63.72
2019-05-05T00:25:44.736Z,64.19
2019-05-05T00:28:14.612Z,63.80
2019-05-05T00:30:44.895Z,62.83
2019-05-05T00:33:14.686Z,63.68
2019-05-05T00:35:45.161Z,63.99
2019-05-05T00:38:15.101Z,62.21
2019-05-05T00:40:44.806Z,61.75
2019-05-05T00:43:14.849Z,61.65
2019-05-05T00:45:46.092Z,61.92
2019-05-05T00:48:30.601Z,61.91
2019-05-05T00:51:00.139Z,61.24
2019-05-05T00:53:29.669Z,62.10
2019-05-05T00:55:59.343Z,62.80
2019-05-05T00:58:30.732Z,62.76
2019-05-05T01:01:20.831Z,63.11
2019-05-05T01:03:50.686Z,63.48
2019-05-05T01:06:26.489Z,62.75
2019-05-05T01:08:55.909Z,62.35
2019-05-05T01:11:25.861Z,62.09
2019-05-05T01:13:55.731Z,62.33
2019-05-05T01:16:25.693Z,62.95
2019-05-05T01:18:55.635Z,62.74
2019-05-05T01:21:25.344Z,62.66
2019-05-05T01:23:54.988Z,62.60
2019-05-05T01:26:25.033Z,62.74
2019-05-05T01:28:56.318Z,62.69
2019-05-05T01:31:26.421Z,62.84
2019-05-05T01:34:07.480Z,62.81
2019-05-05T01:36:37.109Z,62.49
2019-05-05T01:39:31.881Z,63.33
2019-05-05T01:42:05.379Z,63.15
2019-05-05T01:44:35.296Z,63.25
2019-05-05T01:47:05.401Z,62.64
2019-05-05T01:49:35.058Z,62.86
2019-05-05T01:52:04.885Z,62.94
2019-05-05T01:54:35.263Z,63.34
2019-05-05T01:57:05.713Z,63.61
2019-05-05T01:59:35.649Z,63.19
2019-05-05T02:02:05.709Z,62.34
2019-05-05T02:04:35.464Z,62.55
2019-05-05T02:07:06.078Z,62.86
2019-05-05T02:09:35.763Z,62.77
2019-05-05T02:12:05.447Z,62.66
2019-05-05T02:14:35.373Z,62.63
2019-05-05T02:17:05.246Z,62.55
2019-05-05T02:19:35.144Z,62.62
2019-05-05T02:22:05.443Z,62.23
2019-05-05T02:24:35.467Z,61.77
2019-05-05T02:27:05.565Z,61.44
2019-05-05T02:29:57.379Z,61.83
2019-05-05T02:32:46.064Z,61.67
2019-05-05T02:35:16.895Z,61.83
2019-05-05T02:37:46.793Z,61.22
2019-05-05T02:40:17.063Z,61.71
2019-05-05T02:42:47.155Z,61.78
2019-05-05T02:45:40.670Z,61.31
2019-05-05T02:48:15.493Z,61.24
2019-05-05T02:51:00.090Z,61.62
2019-05-05T02:53:27.716Z,62.19
2019-05-05T02:56:01.734Z,61.38
2019-05-05T02:58:33.961Z,61.53
2019-05-05T03:01:30.056Z,61.98
2019-05-05T03:04:01.245Z,62.23
2019-05-05T03:06:30.746Z,62.65
2019-05-05T03:09:01.603Z,62.87
2019-05-05T03:11:34.344Z,63.03
2019-05-05T03:14:06.820Z,63.17
2019-05-05T03:16:38.766Z,63.81
2019-05-05T03:19:09.689Z,63.88
2019-05-05T03:21:39.853Z,64.81
2019-05-05T03:24:10.267Z,65.21
2019-05-05T03:26:40.842Z,65.42
2019-05-05T03:29:13.939Z,65.71
2019-05-05T03:31:45.868Z,66.49
2019-05-05T03:34:16.562Z,66.60
2019-05-05T03:36:46.786Z,66.72
2019-05-05T03:39:23.616Z,66.68
2019-05-05T03:42:13.935Z,66.79
2019-05-05T03:45:05.688Z,66.54
2019-05-05T03:47:36.529Z,65.76
2019-05-05T03:50:07.072Z,65.13
2019-05-05T03:52:36.950Z,64.24
2019-05-05T03:55:07.466Z,64.44
2019-05-05T03:57:37.491Z,64.96
2019-05-05T04:00:08.106Z,65.03
2019-05-05T04:02:54.741Z,65.52
2019-05-05T04:05:44.433Z,65.04
2019-05-05T04:08:14.533Z,64.63
2019-05-05T04:10:44.654Z,65.35
2019-05-05T04:13:16.626Z,65.30
2019-05-05T04:16:06.808Z,64.77
2019-05-05T04:18:41.201Z,65.05
2019-05-05T04:21:11.055Z,65.51
2019-05-05T04:23:40.689Z,66.21
2019-05-05T04:26:10.419Z,65.43
2019-05-05T04:28:40.130Z,65.35
2019-05-05T04:31:09.996Z,65.61
2019-05-05T04:33:39.616Z,65.25
2019-05-05T04:36:09.329Z,66.01
2019-05-05T04:38:38.853Z,67.17
2019-05-05T04:41:08.623Z,67.90
2019-05-05T04:43:38.033Z,68.05
2019-05-05T04:46:07.757Z,68.03
2019-05-05T04:48:55.736Z,67.64
2019-05-05T04:51:29.059Z,66.99
2019-05-05T04:54:26.286Z,66.53
2019-05-05T04:56:56.137Z,65.89
2019-05-05T04:59:25.729Z,65.34
2019-05-05T05:01:58.081Z,64.60
2019-05-05T05:04:49.780Z,64.19
2019-05-05T05:07:20.010Z,62.91
2019-05-05T05:09:49.644Z,62.37
2019-05-05T05:12:19.079Z,61.77
2019-05-05T05:14:48.789Z,61.72
2019-05-05T05:17:27.264Z,61.94
2019-05-05T05:19:56.875Z,61.32
2019-05-05T05:22:26.614Z,62.51
2019-05-05T05:24:56.133Z,62.88
2019-05-05T05:27:26.020Z,63.70
2019-05-05T05:29:55.821Z,64.34
2019-05-05T05:32:25.242Z,64.41
2019-05-05T05:34:54.742Z,64.85
2019-05-05T05:37:24.176Z,65.14
2019-05-05T05:40:03.948Z,66.15
2019-05-05T05:42:33.675Z,66.62
2019-05-05T05:45:21.062Z,66.63
2019-05-05T05:48:08.350Z,67.19
2019-05-05T05:50:44.199Z,67.65
2019-05-05T05:53:14.033Z,67.57
2019-05-05T05:55:44.817Z,67.36
2019-05-05T05:58:14.343Z,67.75
2019-05-05T06:00:44.452Z,68.27
2019-05-05T06:03:14.284Z,68.46
2019-05-05T06:05:43.821Z,68.63
2019-05-05T06:08:14.163Z,68.78
2019-05-05T06:10:44.492Z,68.88
2019-05-05T06:13:15.488Z,69.15
2019-05-05T06:15:45.236Z,69.23
2019-05-05T06:18:14.746Z,69.13
2019-05-05T06:20:44.679Z,68.16
2019-05-05T06:23:14.895Z,69.33
2019-05-05T06:25:44.983Z,69.88
2019-05-05T06:28:14.772Z,69.86
2019-05-05T06:30:44.524Z,69.85
2019-05-05T06:33:14.546Z,69.60
2019-05-05T06:35:44.514Z,68.99
2019-05-05T06:38:14.293Z,69.25
2019-05-05T06:41:11.925Z,68.87
2019-05-05T06:44:03.731Z,67.85
2019-05-05T06:46:53.745Z,68.00
2019-05-05T06:49:23.887Z,68.30
2019-05-05T06:51:54.675Z,67.75
2019-05-05T06:54:24.752Z,67.36
2019-05-05T06:56:54.389Z,66.75
2019-05-05T06:59:24.471Z,66.04
2019-05-05T07:01:54.071Z,65.35
2019-05-05T07:04:24.526Z,64.53
2019-05-05T07:06:57.045Z,63.78
2019-05-05T07:09:25.851Z,63.01
2019-05-05T07:11:55.677Z,62.85
2019-05-05T07:14:25.281Z,62.82
2019-05-05T07:16:55.157Z,62.20
2019-05-05T07:19:24.907Z,62.71
2019-05-05T07:21:54.931Z,63.34
2019-05-05T07:24:24.688Z,63.60
2019-05-05T07:26:54.454Z,63.09
2019-05-05T07:29:24.120Z,62.30
2019-05-05T07:31:54.576Z,61.62
2019-05-05T07:34:26.337Z,62.03
2019-05-05T07:36:55.984Z,62.83
2019-05-05T07:39:25.735Z,62.26
2019-05-05T07:41:55.448Z,60.29
2019-05-05T07:44:29.293Z,59.49
2019-05-05T07:46:56.123Z,59.19
2019-05-05T07:49:25.582Z,57.98
2019-05-05T07:51:55.429Z,56.02
2019-05-05T07:54:25.130Z,56.84
2019-05-05T07:56:54.822Z,55.39
2019-05-05T07:59:24.350Z,55.19
2019-05-05T08:01:54.758Z,54.60
2019-05-05T08:04:24.548Z,54.69
2019-05-05T08:06:54.374Z,53.55
2019-05-05T08:09:24.939Z,53.16
2019-05-05T08:11:54.628Z,52.28
2019-05-05T08:14:24.687Z,51.81
2019-05-05T08:17:12.027Z,51.62
2019-05-05T08:19:48.549Z,51.51
2019-05-05T08:22:18.439Z,50.99
2019-05-05T08:25:06.784Z,50.23
2019-05-05T08:27:45.631Z,50.30
2019-05-05T08:30:21.686Z,50.65
2019-05-05T08:32:51.602Z,51.04
2019-05-05T08:35:21.023Z,50.11
2019-05-05T08:37:50.563Z,50.95
2019-05-05T08:40:20.334Z,50.39
2019-05-05T08:42:50.000Z,50.98
2019-05-05T08:45:19.743Z,50.45
2019-05-05T08:47:49.557Z,49.46
2019-05-05T08:50:19.539Z,49.16
2019-05-05T08:52:49.260Z,47.74
2019-05-05T08:55:19.022Z,46.32
2019-05-05T08:57:48.953Z,44.91
2019-05-05T09:00:18.506Z,43.63
2019-05-05T09:02:48.362Z,42.42
2019-05-05T09:05:17.975Z,42.33
2019-05-05T09:07:47.595Z,43.16
2019-05-05T09:10:17.530Z,43.11
2019-05-05T09:12:47.297Z,43.20
2019-05-05T09:15:17.151Z,43.05
2019-05-05T09:17:46.964Z,42.39
2019-05-05T09:20:17.062Z,40.96
2019-05-05T09:22:46.854Z,38.78
2019-05-05T09:25:34.493Z,35.87
2019-05-05T09:28:38.375Z,35.47
2019-05-05T09:31:08.222Z,33.92
2019-05-05T09:33:38.011Z,30.90
2019-05-05T09:36:07.621Z,30.25
2019-05-05T09:38:37.051Z,29.21
2019-05-05T09:41:06.474Z,28.99
2019-05-05T09:43:36.021Z,29.29
2019-05-05T09:46:05.512Z,29.93
2019-05-05T09:48:35.038Z,28.01
2019-05-05T09:51:04.913Z,26.86
2019-05-05T09:53:34.763Z,24.10
2019-05-05T09:56:04.620Z,23.49
2019-05-05T09:58:34.848Z,22.73
2019-05-05T10:01:05.092Z,21.20
2019-05-05T10:03:34.754Z,19.83
2019-05-05T10:06:05.097Z,20.04
2019-05-05T10:08:35.192Z,19.49
2019-05-05T10:11:05.047Z,19.46
2019-05-05T10:13:34.994Z,18.65
2019-05-05T10:16:05.407Z,18.94
2019-05-05T10:18:35.991Z,19.48
2019-05-05T10:21:06.036Z,22.20
2019-05-05T10:23:37.672Z,23.97
2019-05-05T10:26:09.849Z,23.57
2019-05-05T10:28:39.756Z,21.60
2019-05-05T10:31:09.543Z,22.32
2019-05-05T10:33:42.398Z,21.70
2019-05-05T10:36:13.856Z,21.41
2019-05-05T10:38:46.208Z,20.68
2019-05-05T10:41:15.952Z,20.64
2019-05-05T10:43:45.677Z,20.47
2019-05-05T10:46:18.097Z,20.54
2019-05-05T10:48:47.919Z,20.71
2019-05-05T10:51:17.607Z,19.63
2019-05-05T10:53:47.296Z,19.23
2019-05-05T10:56:17.146Z,18.37
2019-05-05T10:58:47.309Z,18.41
2019-05-05T11:01:16.924Z,18.05
2019-05-05T11:03:46.652Z,19.03
2019-05-05T11:06:16.940Z,18.37
2019-05-05T11:08:46.750Z,19.08
2019-05-05T11:11:16.493Z,19.09
2019-05-05T11:13:47.131Z,18.44
2019-05-05T11:16:17.022Z,19.41
2019-05-05T11:18:47.130Z,19.51
2019-05-05T11:21:16.767Z,20.54
2019-05-05T11:23:46.383Z,21.63
2019-05-05T11:26:16.124Z,22.60
2019-05-05T11:28:45.533Z,23.49
2019-05-05T11:31:15.597Z,24.26
2019-05-05T11:34:19.497Z,25.42
2019-05-05T11:37:10.950Z,24.69
2019-05-05T11:39:40.608Z,24.27
2019-05-05T11:42:10.422Z,25.10
2019-05-05T11:44:40.114Z,24.04
2019-05-05T11:47:09.556Z,23.05
2019-05-05T11:49:39.380Z,21.37
2019-05-05T11:52:09.119Z,20.42
2019-05-05T11:54:38.840Z,20.39
2019-05-05T11:57:08.676Z,21.30
2019-05-05T11:59:38.348Z,22.03
2019-05-05T12:02:08.292Z,23.32
2019-05-05T12:04:37.800Z,23.95
2019-05-05T12:07:07.568Z,25.36
2019-05-05T12:09:44.452Z,26.66
2019-05-05T12:12:14.289Z,26.81
2019-05-05T12:14:44.033Z,27.26
2019-05-05T12:17:15.587Z,28.31
2019-05-05T12:19:45.125Z,29.49
2019-05-05T12:22:14.780Z,31.12
2019-05-05T12:24:46.704Z,32.42
2019-05-05T12:27:35.373Z,33.99
2019-05-05T12:30:08.498Z,34.83
2019-05-05T12:32:38.245Z,36.25
2019-05-05T12:35:08.224Z,35.85
2019-05-05T12:37:38.020Z,36.07
2019-05-05T12:40:08.123Z,35.80
2019-05-05T12:42:37.855Z,35.44
2019-05-05T12:45:11.093Z,35.28
2019-05-05T12:47:59.525Z,34.58
2019-05-05T12:50:29.195Z,35.52
2019-05-05T12:52:58.899Z,34.57
2019-05-05T12:55:40.568Z,32.62
2019-05-05T12:58:00.262Z,30.09
2019-05-05T13:00:30.234Z,30.72
2019-05-05T13:02:59.730Z,31.44
2019-05-05T13:05:29.474Z,33.42
2019-05-05T13:07:59.025Z,35.46
2019-05-05T13:10:28.559Z,36.16
2019-05-05T13:12:58.237Z,37.40
2019-05-05T13:15:27.698Z,39.48
2019-05-05T13:17:57.482Z,40.73
2019-05-05T13:20:39.169Z,40.55
2019-05-05T13:23:26.186Z,41.66
2019-05-05T13:26:14.946Z,41.31
2019-05-05T13:28:44.592Z,42.35
2019-05-05T13:31:14.415Z,43.01
2019-05-05T13:33:44.374Z,43.44
2019-05-05T13:36:14.012Z,44.17
2019-05-05T13:38:43.907Z,45.93
2019-05-05T13:41:13.670Z,46.89
2019-05-05T13:43:43.362Z,46.88
2019-05-05T13:46:24.580Z,46.59
2019-05-05T13:48:53.982Z,46.91
2019-05-05T13:51:24.127Z,46.08
2019-05-05T13:53:54.027Z,45.07
2019-05-05T13:56:24.619Z,45.82
2019-05-05T13:58:54.377Z,45.60
2019-05-05T14:01:24.103Z,45.38
2019-05-05T14:03:54.257Z,44.10
2019-05-05T14:06:25.302Z,42.93
2019-05-05T14:08:55.192Z,42.08
2019-05-05T14:11:25.006Z,42.46
2019-05-05T14:13:54.817Z,42.62
2019-05-05T14:16:24.588Z,41.58
2019-05-05T14:18:54.256Z,43.11
2019-05-05T14:21:24.477Z,43.87
2019-05-05T14:24:00.682Z,44.64
2019-05-05T14:26:32.298Z,44.77
2019-05-05T14:29:01.674Z,45.53
2019-05-05T14:31:34.823Z,46.61
2019-05-05T14:34:10.892Z,45.35
2019-05-05T14:37:11.148Z,44.67
2019-05-05T14:39:40.339Z,46.29
2019-05-05T14:42:10.074Z,46.08
2019-05-05T14:44:39.861Z,44.95
2019-05-05T14:47:09.589Z,45.29
2019-05-05T14:49:39.322Z,45.12
2019-05-05T14:52:09.042Z,44.93
2019-05-05T14:54:38.808Z,45.25
2019-05-05T14:57:08.589Z,45.17
2019-05-05T14:59:38.334Z,45.51
2019-05-05T15:02:07.856Z,46.22
2019-05-05T15:04:39.205Z,46.60
2019-05-05T15:07:17.946Z,47.40
2019-05-05T15:09:51.662Z,47.11
2019-05-05T15:12:34.603Z,47.63
2019-05-05T15:15:07.340Z,47.42
2019-05-05T15:17:36.394Z,48.22
2019-05-05T15:20:06.905Z,48.46
2019-05-05T15:22:36.407Z,48.67
2019-05-05T15:25:06.561Z,47.50
2019-05-05T15:27:36.078Z,47.39
2019-05-05T15:30:06.390Z,47.53
2019-05-05T15:32:36.149Z,46.44
2019-05-05T15:35:06.662Z,46.43
2019-05-05T15:37:36.620Z,46.73
2019-05-05T15:40:06.932Z,46.42
2019-05-05T15:42:36.654Z,46.28
2019-05-05T15:45:06.834Z,46.19
2019-05-05T15:47:36.638Z,46.07
2019-05-05T15:50:06.734Z,46.30
2019-05-05T15:52:36.789Z,46.80
2019-05-05T15:55:07.605Z,46.53
2019-05-05T15:57:37.490Z,46.62
2019-05-05T16:00:07.380Z,46.45
2019-05-05T16:02:37.188Z,46.36
2019-05-05T16:05:07.208Z,46.11
2019-05-05T16:07:37.101Z,46.56
2019-05-05T16:10:07.471Z,46.24
2019-05-05T16:12:39.764Z,46.21
2019-05-05T16:15:40.816Z,46.67
2019-05-05T16:18:19.183Z,46.82
2019-05-05T16:20:54.656Z,47.10
2019-05-05T16:23:27.454Z,47.54
2019-05-05T16:25:57.202Z,46.72
2019-05-05T16:28:26.798Z,47.28
2019-05-05T16:30:56.519Z,48.17
2019-05-05T16:33:26.385Z,48.77
2019-05-05T16:35:55.986Z,48.94
2019-05-05T16:38:25.669Z,48.09
2019-05-05T16:40:55.363Z,48.15
2019-05-05T16:43:24.883Z,48.96
2019-05-05T16:45:54.428Z,49.96
2019-05-05T16:48:25.793Z,49.72
2019-05-05T16:50:55.795Z,48.85
2019-05-05T16:53:35.632Z,48.35
2019-05-05T16:56:07.676Z,48.90
2019-05-05T16:58:37.175Z,49.53
2019-05-05T17:01:10.186Z,49.91
2019-05-05T17:03:39.953Z,50.49
2019-05-05T17:06:09.383Z,50.63
2019-05-05T17:08:38.930Z,51.51
2019-05-05T17:11:08.452Z,52.28
2019-05-05T17:13:46.388Z,52.71
2019-05-05T17:16:35.324Z,53.02
2019-05-05T17:19:30.375Z,52.85
2019-05-05T17:22:18.726Z,53.56
2019-05-05T17:24:48.363Z,54.61
2019-05-05T17:27:18.100Z,55.65
2019-05-05T17:29:47.916Z,54.33
2019-05-05T17:32:17.848Z,54.04
2019-05-05T17:34:47.589Z,54.07
2019-05-05T17:37:17.015Z,54.59
2019-05-05T17:39:54.467Z,55.02
2019-05-05T17:42:35.147Z,55.41
2019-05-05T17:45:14.959Z,55.68
2019-05-05T17:48:09.950Z,55.74
2019-05-05T17:50:57.979Z,55.66
2019-05-05T17:53:36.174Z,55.97
2019-05-05T17:56:06.907Z,55.75
2019-05-05T17:58:36.447Z,55.80
2019-05-05T18:01:06.105Z,56.07
2019-05-05T18:03:35.896Z,56.51
2019-05-05T18:06:36.797Z,57.05
2019-05-05T18:09:14.065Z,57.31
2019-05-05T18:12:07.400Z,57.66
2019-05-05T18:14:37.287Z,57.27
2019-05-05T18:17:07.159Z,57.67
2019-05-05T18:19:38.986Z,58.35
2019-05-05T18:22:08.794Z,58.73
2019-05-05T18:24:38.290Z,58.70
2019-05-05T18:27:08.018Z,58.86
2019-05-05T18:29:37.625Z,58.79
2019-05-05T18:32:07.158Z,58.35
2019-05-05T18:34:36.693Z,58.60
2019-05-05T18:37:06.125Z,58.58
2019-05-05T18:39:35.795Z,59.56
2019-05-05T18:42:13.991Z,59.56
2019-05-05T18:44:45.864Z,60.36
2019-05-05T18:47:19.532Z,60.04
2019-05-05T18:49:49.110Z,60.00
2019-05-05T18:52:18.856Z,60.70
2019-05-05T18:54:48.685Z,60.52
2019-05-05T18:57:18.420Z,60.78
2019-05-05T18:59:47.856Z,61.21
2019-05-05T19:02:35.483Z,61.29
2019-05-05T19:05:19.825Z,61.99
2019-05-05T19:08:14.386Z,61.69
2019-05-05T19:10:43.851Z,61.87
2019-05-05T19:13:13.780Z,62.00
2019-05-05T19:15:43.702Z,62.06
2019-05-05T19:18:14.053Z,62.23
2019-05-05T19:21:03.621Z,62.76
2019-05-05T19:23:33.798Z,62.50
2019-05-05T19:26:07.518Z,61.99
2019-05-05T19:28:43.909Z,62.43
2019-05-05T19:31:07.823Z,63.29
2019-05-05T19:33:37.505Z,63.54
2019-05-05T19:36:06.962Z,63.88
2019-05-05T19:38:36.747Z,63.93
2019-05-05T19:41:06.256Z,62.99
2019-05-05T19:43:37.654Z,63.49
2019-05-05T19:46:08.763Z,63.99
2019-05-05T19:48:38.538Z,63.64
2019-05-05T19:51:11.561Z,63.88
2019-05-05T19:53:41.368Z,64.58
2019-05-05T19:56:10.972Z,65.02
2019-05-05T19:58:40.652Z,64.09
2019-05-05T20:01:10.178Z,64.37
2019-05-05T20:03:44.150Z,64.32
2019-05-05T20:06:14.264Z,63.96
2019-05-05T20:08:44.392Z,64.02
2019-05-05T20:11:14.382Z,64.27
2019-05-05T20:13:44.623Z,64.49
2019-05-05T20:16:26.791Z,64.60
2019-05-05T20:18:56.463Z,64.48
2019-05-05T20:21:26.325Z,63.42
2019-05-05T20:23:56.063Z,62.10
2019-05-05T20:26:25.773Z,60.17
2019-05-05T20:28:55.622Z,58.29
2019-05-05T20:31:25.237Z,56.19
2019-05-05T20:34:04.907Z,55.67
2019-05-05T20:36:35.155Z,54.82
2019-05-05T20:39:06.707Z,54.43
2019-05-05T20:41:36.544Z,55.19
2019-05-05T20:44:08.853Z,53.91
2019-05-05T20:46:38.617Z,53.57
2019-05-05T20:49:08.320Z,53.71
2019-05-05T20:51:37.750Z,54.94
2019-05-05T20:54:07.688Z,55.33
2019-05-05T20:56:37.384Z,53.86
2019-05-05T20:59:06.795Z,53.26
2019-05-05T21:01:36.239Z,53.04
2019-05-05T21:04:05.903Z,52.80
2019-05-05T21:06:35.704Z,53.05
2019-05-05T21:09:07.185Z,52.64
2019-05-05T21:11:37.261Z,52.47
2019-05-05T21:14:07.052Z,52.26
2019-05-05T21:16:36.815Z,52.01
2019-05-05T21:19:06.338Z,52.09
2019-05-05T21:21:37.564Z,51.93
2019-05-05T21:24:07.815Z,51.78
2019-05-05T21:27:13.768Z,52.14
2019-05-05T21:29:43.464Z,51.87
2019-05-05T21:32:13.867Z,51.79
2019-05-05T21:34:44.415Z,51.89
2019-05-05T21:37:14.332Z,54.27
2019-05-05T21:39:45.470Z,55.80
2019-05-05T21:42:15.250Z,56.31
2019-05-05T21:44:44.960Z,56.94
2019-05-05T21:47:14.698Z,57.25
2019-05-05T21:49:44.370Z,57.41
2019-05-05T21:52:28.567Z,57.91
2019-05-05T21:55:08.337Z,58.71
2019-05-05T21:57:55.431Z,58.54
2019-05-05T22:00:44.238Z,58.89
2019-05-05T22:03:17.132Z,59.33
2019-05-05T22:05:46.746Z,59.05
2019-05-05T22:08:16.617Z,59.08
2019-05-05T22:10:46.019Z,59.09
2019-05-05T22:13:15.790Z,59.75
2019-05-05T22:15:45.587Z,59.58
2019-05-05T22:18:15.188Z,60.05
2019-05-05T22:20:49.640Z,60.44
2019-05-05T22:23:19.078Z,60.99
2019-05-05T22:25:48.786Z,61.07
2019-05-05T22:28:18.276Z,61.50
2019-05-05T22:30:48.052Z,61.65
2019-05-05T22:33:17.782Z,62.28
2019-05-05T22:35:48.922Z,62.66
2019-05-05T22:38:18.567Z,63.28
2019-05-05T22:40:51.207Z,63.45
2019-05-05T22:43:20.879Z,63.48
2019-05-05T22:45:50.520Z,63.78
2019-05-05T22:48:20.159Z,63.88
2019-05-05T22:50:50.014Z,63.89
2019-05-05T22:53:19.863Z,64.13
2019-05-05T22:55:49.378Z,64.82
2019-05-05T22:58:19.088Z,64.97
2019-05-05T23:00:49.064Z,64.82
2019-05-05T23:03:30.944Z,64.60
2019-05-05T23:06:04.640Z,65.39
2019-05-05T23:08:35.113Z,65.90
2019-05-05T23:11:04.997Z,66.83
2019-05-05T23:13:34.862Z,67.33
2019-05-05T23:16:14.773Z,67.54
2019-05-05T23:18:44.602Z,67.98
2019-05-05T23:21:31.349Z,68.75
2019-05-05T23:24:35.121Z,69.15
2019-05-05T23:27:04.743Z,69.01
2019-05-05T23:29:34.545Z,69.36
2019-05-05T23:32:04.357Z,69.77
2019-05-05T23:34:34.022Z,69.50
2019-05-05T23:37:04.306Z,70.11
2019-05-05T23:39:34.088Z,70.37
2019-05-05T23:42:04.138Z,70.68
2019-05-05T23:44:36.543Z,71.55
2019-05-05T23:47:06.074Z,72.36
2019-05-05T23:49:35.792Z,72.44
2019-05-05T23:52:05.672Z,72.50
2019-05-05T23:54:35.422Z,72.22
2019-05-05T23:57:05.228Z,72.33
2019-05-05T23:59:34.967Z,72.67
